createdAt,value
2018-09-04T00:01:10.844Z,7.47
2018-09-04T00:03:38.864Z,7.10
2018-09-04T00:06:07.203Z,6.87
2018-09-04T00:08:35.243Z,7.20
2018-09-04T00:11:03.288Z,7.95
2018-09-04T00:13:31.321Z,7.35
2018-09-04T00:15:59.352Z,7.40
2018-09-04T00:18:27.368Z,7.30
2018-09-04T00:20:55.364Z,7.80
2018-09-04T00:23:23.382Z,8.18
2018-09-04T00:25:51.437Z,7.60
2018-09-04T00:28:19.471Z,7.25
2018-09-04T00:30:47.500Z,7.37
2018-09-04T00:33:15.552Z,7.85
2018-09-04T00:35:43.568Z,8.35
2018-09-04T00:38:11.616Z,8.70
2018-09-04T00:40:39.644Z,8.45
2018-09-04T00:43:07.671Z,8.98
2018-09-04T00:45:35.716Z,8.45
2018-09-04T00:48:03.727Z,9.50
2018-09-04T00:50:31.776Z,8.58
2018-09-04T00:52:59.803Z,8.95
2018-09-04T00:55:27.828Z,9.50
2018-09-04T00:57:55.868Z,9.70
2018-09-04T01:00:25.079Z,9.70
2018-09-04T01:02:54.174Z,10.38
2018-09-04T01:05:22.209Z,10.17
2018-09-04T01:07:50.270Z,9.30
2018-09-04T01:10:18.327Z,10.10
2018-09-04T01:12:46.385Z,10.50
2018-09-04T01:15:14.405Z,10.77
2018-09-04T01:17:42.436Z,10.70
2018-09-04T01:20:10.470Z,11.12
2018-09-04T01:22:38.511Z,11.48
2018-09-04T01:25:06.569Z,11.10
2018-09-04T01:27:34.608Z,10.90
2018-09-04T01:30:02.637Z,12.13
2018-09-04T01:32:30.804Z,11.60
2018-09-04T01:34:58.839Z,11.70
2018-09-04T01:37:26.844Z,11.77
2018-09-04T01:39:54.868Z,12.65
2018-09-04T01:42:22.867Z,12.45
2018-09-04T01:44:50.907Z,12.53
2018-09-04T01:47:18.928Z,13.03
2018-09-04T01:49:46.951Z,13.20
2018-09-04T01:52:14.966Z,12.90
2018-09-04T01:54:43.050Z,13.40
2018-09-04T01:57:11.080Z,13.62
2018-09-04T01:59:39.099Z,14.03
2018-09-04T02:02:07.125Z,13.68
2018-09-04T02:04:35.128Z,13.48
2018-09-04T02:07:03.160Z,14.60
2018-09-04T02:09:31.187Z,14.78
2018-09-04T02:11:59.200Z,13.88
2018-09-04T02:14:27.221Z,14.38
2018-09-04T02:16:55.233Z,15.23
2018-09-04T02:19:23.285Z,14.87
2018-09-04T02:21:51.304Z,15.90
2018-09-04T02:24:19.336Z,15.68
2018-09-04T02:26:47.381Z,16.10
2018-09-04T02:29:15.409Z,16.12
2018-09-04T02:31:43.465Z,16.60
2018-09-04T02:34:11.515Z,16.45
2018-09-04T02:36:39.540Z,16.47
2018-09-04T02:39:09.135Z,17.80
2018-09-04T02:41:37.196Z,17.93
2018-09-04T02:44:05.788Z,17.00
2018-09-04T02:46:33.825Z,17.90
2018-09-04T02:49:01.860Z,17.50
2018-09-04T02:51:29.944Z,18.35
2018-09-04T02:53:58.068Z,18.67
2018-09-04T02:56:26.130Z,17.90
2018-09-04T02:58:54.178Z,18.60
2018-09-04T03:01:22.220Z,18.20
2018-09-04T03:03:50.253Z,19.50
2018-09-04T03:06:18.300Z,17.80
2018-09-04T03:08:46.331Z,19.07
2018-09-04T03:11:14.376Z,19.23
2018-09-04T03:13:42.436Z,18.92
2018-09-04T03:16:10.457Z,18.95
2018-09-04T03:18:38.529Z,19.30
2018-09-04T03:21:06.580Z,19.50
2018-09-04T03:23:34.636Z,20.00
2018-09-04T03:26:02.759Z,19.20
2018-09-04T03:28:30.768Z,18.27
2018-09-04T03:30:58.817Z,19.25
2018-09-04T03:33:26.988Z,19.70
2018-09-04T03:35:55.160Z,18.80
2018-09-04T03:38:23.195Z,19.17
2018-09-04T03:40:51.241Z,19.65
2018-09-04T03:43:19.296Z,19.15
2018-09-04T03:45:47.335Z,19.27
2018-09-04T03:48:15.380Z,19.57
2018-09-04T03:50:43.440Z,19.20
2018-09-04T03:53:11.479Z,19.73
2018-09-04T03:55:39.522Z,20.40
2018-09-04T03:58:07.551Z,20.02
2018-09-04T04:00:36.009Z,20.77
2018-09-04T04:03:04.028Z,20.85
2018-09-04T04:05:32.145Z,21.40
2018-09-04T04:08:00.184Z,20.50
2018-09-04T04:10:28.228Z,21.17
2018-09-04T04:12:56.262Z,20.70
2018-09-04T04:15:24.339Z,22.13
2018-09-04T04:17:52.372Z,20.95
2018-09-04T04:20:20.424Z,21.37
2018-09-04T04:22:48.456Z,20.17
2018-09-04T04:25:16.528Z,20.65
2018-09-04T04:27:44.574Z,20.40
2018-09-04T04:30:12.620Z,20.90
2018-09-04T04:32:40.644Z,21.07
2018-09-04T04:35:08.694Z,22.42
2018-09-04T04:37:36.745Z,22.80
2018-09-04T04:40:05.484Z,22.60
2018-09-04T04:42:33.486Z,23.50
2018-09-04T04:45:01.545Z,23.00
2018-09-04T04:47:34.955Z,21.20
2018-09-04T04:50:03.027Z,23.87
2018-09-04T04:52:31.180Z,23.30
2018-09-04T04:54:59.232Z,21.97
2018-09-04T04:57:27.298Z,22.98
2018-09-04T04:59:55.345Z,23.40
2018-09-04T05:02:23.424Z,22.50
2018-09-04T05:04:51.465Z,22.42
2018-09-04T05:07:19.514Z,22.30
2018-09-04T05:09:47.564Z,24.20
2018-09-04T05:12:15.612Z,23.60
2018-09-04T05:14:43.659Z,23.75
2018-09-04T05:17:11.712Z,23.15
2018-09-04T05:19:39.768Z,22.98
2018-09-04T05:22:07.817Z,25.00
2018-09-04T05:24:35.869Z,22.90
2018-09-04T05:27:03.917Z,22.40
2018-09-04T05:29:31.973Z,28.00
2018-09-04T05:33:03.204Z,24.90
2018-09-04T05:35:36.452Z,25.25
2018-09-04T05:38:04.900Z,24.70
2018-09-04T05:40:32.936Z,26.10
2018-09-04T05:43:03.331Z,25.32
2018-09-04T05:45:32.367Z,24.97
2018-09-04T05:48:07.709Z,23.92
2018-09-04T05:50:35.760Z,24.43
2018-09-04T05:53:03.833Z,31.23
2018-09-04T05:55:31.896Z,25.00
2018-09-04T05:58:00.301Z,25.15
2018-09-04T06:00:30.717Z,26.12
2018-09-04T06:02:58.789Z,25.32
2018-09-04T06:05:26.835Z,24.67
2018-09-04T06:07:54.906Z,29.00
2018-09-04T06:10:22.928Z,24.65
2018-09-04T06:12:50.961Z,26.45
2018-09-04T06:15:19.060Z,25.70
2018-09-04T06:17:47.124Z,25.17
2018-09-04T06:20:15.221Z,24.70
2018-09-04T06:22:43.293Z,25.60
2018-09-04T06:25:11.361Z,26.85
2018-09-04T06:27:39.420Z,25.45
2018-09-04T06:30:07.901Z,24.90
2018-09-04T06:32:36.056Z,25.15
2018-09-04T06:35:04.084Z,24.60
2018-09-04T06:37:32.111Z,24.00
2018-09-04T06:40:00.155Z,23.65
2018-09-04T06:42:28.208Z,23.18
2018-09-04T06:44:56.375Z,22.98
2018-09-04T06:47:24.404Z,23.50
2018-09-04T06:49:52.440Z,24.52
2018-09-04T06:52:20.465Z,24.80
2018-09-04T06:54:48.521Z,23.57
2018-09-04T06:57:16.576Z,25.05
2018-09-04T06:59:44.600Z,25.32
2018-09-04T07:02:12.633Z,23.90
2018-09-04T07:04:40.667Z,21.62
2018-09-04T07:07:08.720Z,21.40
2018-09-04T07:09:36.778Z,21.35
2018-09-04T07:12:04.812Z,21.93
2018-09-04T07:14:32.837Z,21.63
2018-09-04T07:17:00.889Z,19.87
2018-09-04T07:19:28.876Z,20.50
2018-09-04T07:21:56.960Z,21.42
2018-09-04T07:24:25.009Z,21.73
2018-09-04T07:26:53.056Z,21.15
2018-09-04T07:29:21.092Z,20.67
2018-09-04T07:31:49.124Z,21.15
2018-09-04T07:34:17.172Z,21.15
2018-09-04T07:36:45.234Z,20.57
2018-09-04T07:39:13.305Z,19.87
2018-09-04T07:41:41.700Z,19.62
2018-09-04T07:44:09.769Z,20.75
2018-09-04T07:46:38.160Z,20.88
2018-09-04T07:49:06.241Z,20.88
2018-09-04T07:51:34.280Z,21.97
2018-09-04T07:54:02.349Z,21.60
2018-09-04T07:56:30.387Z,19.55
2018-09-04T07:58:58.421Z,19.35
2018-09-04T08:01:26.460Z,19.00
2018-09-04T08:03:54.504Z,16.97
2018-09-04T08:06:22.600Z,18.37
2018-09-04T08:08:50.667Z,15.85
2018-09-04T08:11:18.717Z,16.23
2018-09-04T08:13:46.744Z,15.05
2018-09-04T08:16:14.833Z,15.17
2018-09-04T08:18:42.831Z,15.75
2018-09-04T08:21:10.861Z,15.58
2018-09-04T08:23:38.920Z,15.28
2018-09-04T08:26:06.991Z,14.70
2018-09-04T08:28:35.040Z,13.28
2018-09-04T08:31:03.225Z,13.90
2018-09-04T08:33:31.272Z,13.00
2018-09-04T08:35:59.302Z,12.73
2018-09-04T08:38:27.337Z,13.00
2018-09-04T08:40:55.377Z,12.53
2018-09-04T08:43:23.442Z,12.00
2018-09-04T08:45:51.479Z,12.75
2018-09-04T08:48:21.053Z,12.58
2018-09-04T08:50:49.085Z,12.20
2018-09-04T08:53:17.654Z,12.00
2018-09-04T08:55:45.777Z,10.87
2018-09-04T08:58:13.829Z,10.95
2018-09-04T09:00:41.861Z,11.38
2018-09-04T09:03:09.971Z,10.80
2018-09-04T09:05:38.109Z,10.93
2018-09-04T09:08:06.253Z,10.60
2018-09-04T09:10:34.303Z,10.03
2018-09-04T09:13:02.659Z,10.05
2018-09-04T09:15:30.688Z,20.17
2018-09-04T09:17:58.751Z,11.22
2018-09-04T09:20:26.792Z,12.17
2018-09-04T09:22:54.932Z,11.40
2018-09-04T09:25:22.865Z,10.10
2018-09-04T09:27:50.886Z,10.63
2018-09-04T09:30:18.908Z,10.28
2018-09-04T09:32:46.946Z,9.60
2018-09-04T09:35:15.129Z,9.20
2018-09-04T09:37:43.000Z,8.78
2018-09-04T09:40:11.134Z,7.83
2018-09-04T09:42:39.134Z,9.13
2018-09-04T09:45:07.177Z,8.63
2018-09-04T09:47:39.477Z,7.97
2018-09-04T09:50:07.488Z,8.25
2018-09-04T09:52:35.624Z,8.33
2018-09-04T09:55:03.556Z,8.88
2018-09-04T09:57:31.631Z,13.65
2018-09-04T09:59:59.707Z,19.73
2018-09-04T10:03:31.356Z,13.60
2018-09-04T10:05:59.376Z,7.60
2018-09-04T10:08:27.451Z,8.28
2018-09-04T10:10:55.441Z,11.00
2018-09-04T10:13:23.531Z,7.87
2018-09-04T10:15:51.547Z,8.95
2018-09-04T10:18:19.552Z,8.23
2018-09-04T10:20:47.568Z,7.35
2018-09-04T10:23:15.576Z,8.38
2018-09-04T10:25:43.669Z,7.50
2018-09-04T10:28:11.742Z,7.83
2018-09-04T10:30:39.744Z,8.37
2018-09-04T10:33:07.780Z,8.20
2018-09-04T10:35:35.841Z,7.75
2018-09-04T10:38:03.855Z,8.28
2018-09-04T10:40:38.687Z,7.97
2018-09-04T10:43:06.687Z,8.13
2018-09-04T10:45:40.300Z,8.08
2018-09-04T10:48:12.588Z,7.50
2018-09-04T10:50:40.757Z,7.60
2018-09-04T10:53:08.944Z,7.20
2018-09-04T10:55:37.008Z,7.28
2018-09-04T10:58:05.617Z,7.90
2018-09-04T11:00:33.676Z,7.93
2018-09-04T11:03:01.970Z,6.90
2018-09-04T11:05:30.014Z,7.42
2018-09-04T11:07:58.036Z,6.78
2018-09-04T11:10:26.073Z,7.30
2018-09-04T11:12:54.112Z,7.55
2018-09-04T11:15:22.213Z,10.08
2018-09-04T11:17:50.252Z,17.00
2018-09-04T11:20:18.369Z,7.50
2018-09-04T11:22:46.420Z,8.00
2018-09-04T11:25:14.445Z,7.10
2018-09-04T11:27:42.480Z,9.83
2018-09-04T11:30:12.393Z,7.45
2018-09-04T11:32:40.964Z,20.32
2018-09-04T11:35:09.060Z,12.15
2018-09-04T11:37:37.081Z,7.08
2018-09-04T11:40:05.417Z,8.15
2018-09-04T11:42:33.456Z,6.30
2018-09-04T11:45:01.497Z,7.10
2018-09-04T11:47:29.558Z,6.25
2018-09-04T11:49:57.590Z,7.80
2018-09-04T11:52:25.694Z,7.90
2018-09-04T11:54:53.706Z,8.45
2018-09-04T11:57:21.739Z,6.10
2018-09-04T11:59:49.761Z,10.85
2018-09-04T12:02:23.348Z,6.22
2018-09-04T12:04:51.373Z,6.22
2018-09-04T12:07:19.411Z,6.05
2018-09-04T12:09:47.441Z,15.27
2018-09-04T12:12:20.922Z,16.33
2018-09-04T12:14:48.928Z,5.72
2018-09-04T12:17:17.025Z,7.03
2018-09-04T12:19:52.971Z,7.83
2018-09-04T12:22:20.976Z,6.40
2018-09-04T12:24:49.059Z,12.73
2018-09-04T12:27:17.162Z,13.68
2018-09-04T12:29:45.084Z,5.40
2018-09-04T12:32:13.113Z,5.60
2018-09-04T12:34:41.141Z,10.50
2018-09-04T12:37:09.168Z,5.65
2018-09-04T12:39:38.653Z,5.62
2018-09-04T12:42:06.702Z,4.72
2018-09-04T12:44:34.761Z,6.92
2018-09-04T12:47:02.819Z,4.90
2018-09-04T12:49:30.880Z,5.28
2018-09-04T12:51:58.936Z,6.33
2018-09-04T12:54:26.989Z,12.88
2018-09-04T12:56:55.045Z,8.30
2018-09-04T12:59:23.100Z,4.37
2018-09-04T13:01:51.192Z,13.53
2018-09-04T13:04:19.228Z,5.80
2018-09-04T13:06:47.277Z,10.63
2018-09-04T13:09:15.363Z,9.40
2018-09-04T13:11:43.396Z,7.85
2018-09-04T13:14:11.460Z,6.95
2018-09-04T13:16:39.529Z,5.22
2018-09-04T13:19:07.559Z,5.00
2018-09-04T13:21:35.601Z,5.17
2018-09-04T13:24:03.623Z,5.60
2018-09-04T13:26:31.637Z,5.10
2018-09-04T13:28:59.664Z,6.40
2018-09-04T13:31:27.679Z,7.05
2018-09-04T13:33:55.716Z,5.60
2018-09-04T13:36:23.807Z,5.00
2018-09-04T13:38:51.777Z,9.80
2018-09-04T13:41:19.797Z,8.93
2018-09-04T13:43:47.844Z,7.00
2018-09-04T13:46:15.844Z,5.37
2018-09-04T13:48:43.871Z,6.40
2018-09-04T13:51:11.879Z,6.12
2018-09-04T13:53:39.936Z,11.73
2018-09-04T13:56:08.003Z,6.17
2018-09-04T13:58:36.056Z,4.83
2018-09-04T14:01:04.134Z,4.97
2018-09-04T14:03:32.161Z,5.80
2018-09-04T14:06:00.196Z,6.05
2018-09-04T14:08:28.236Z,7.33
2018-09-04T14:10:56.252Z,4.80
2018-09-04T14:13:24.277Z,4.55
2018-09-04T14:15:54.916Z,4.80
2018-09-04T14:18:22.956Z,4.55
2018-09-04T14:20:51.003Z,6.83
2018-09-04T14:23:19.041Z,6.87
2018-09-04T14:25:47.081Z,5.15
2018-09-04T14:28:40.965Z,4.42
2018-09-04T14:30:43.191Z,4.42
2018-09-04T14:33:11.161Z,6.03
2018-09-04T14:35:39.161Z,5.15
2018-09-04T14:38:07.208Z,5.10
2018-09-04T14:40:35.217Z,4.50
2018-09-04T14:43:03.996Z,5.10
2018-09-04T14:45:32.021Z,5.40
2018-09-04T14:48:00.145Z,6.90
2018-09-04T14:50:28.112Z,4.95
2018-09-04T14:52:56.152Z,5.10
2018-09-04T14:55:24.184Z,10.45
2018-09-04T14:57:52.224Z,6.80
2018-09-04T15:00:20.221Z,6.12
2018-09-04T15:02:48.240Z,7.28
2018-09-04T15:05:16.272Z,8.57
2018-09-04T15:07:44.329Z,5.40
2018-09-04T15:10:12.321Z,5.80
2018-09-04T15:12:40.348Z,5.40
2018-09-04T15:15:08.740Z,5.60
2018-09-04T15:17:36.767Z,5.45
2018-09-04T15:20:04.824Z,5.30
2018-09-04T15:22:32.868Z,5.40
2018-09-04T15:25:00.920Z,5.50
2018-09-04T15:27:28.948Z,5.75
2018-09-04T15:29:57.016Z,5.45
2018-09-04T15:32:25.062Z,5.80
2018-09-04T15:34:53.153Z,5.47
2018-09-04T15:37:21.192Z,5.30
2018-09-04T15:39:49.239Z,5.10
2018-09-04T15:42:17.267Z,6.80
2018-09-04T15:44:45.322Z,4.62
2018-09-04T15:47:13.377Z,4.47
2018-09-04T15:49:46.641Z,5.20
2018-09-04T15:52:15.439Z,4.80
2018-09-04T15:54:43.493Z,5.10
2018-09-04T15:57:11.592Z,4.70
2018-09-04T15:59:39.638Z,4.63
2018-09-04T16:02:07.651Z,4.70
2018-09-04T16:04:35.797Z,5.40
2018-09-04T16:07:03.838Z,4.20
2018-09-04T16:09:31.892Z,4.70
2018-09-04T16:11:59.916Z,4.80
2018-09-04T16:14:27.968Z,5.28
2018-09-04T16:16:56.025Z,4.65
2018-09-04T16:19:24.217Z,4.58
2018-09-04T16:21:52.280Z,4.70
2018-09-04T16:24:20.300Z,4.15
2018-09-04T16:26:48.328Z,4.55
2018-09-04T16:29:16.344Z,4.70
2018-09-04T16:31:44.352Z,4.90
2018-09-04T16:34:12.406Z,4.60
2018-09-04T16:36:40.428Z,4.53
2018-09-04T16:39:08.468Z,4.95
2018-09-04T16:41:36.870Z,4.50
2018-09-04T16:44:05.841Z,4.67
2018-09-04T16:46:34.021Z,4.60
2018-09-04T16:49:02.145Z,4.60
2018-09-04T16:51:30.169Z,4.67
2018-09-04T16:53:58.189Z,4.50
2018-09-04T16:56:26.200Z,4.35
2018-09-04T16:58:54.949Z,4.80
2018-09-04T17:01:23.041Z,4.40
2018-09-04T17:03:51.044Z,5.08
2018-09-04T17:06:19.080Z,4.60
2018-09-04T17:08:47.197Z,4.40
2018-09-04T17:11:15.224Z,4.60
2018-09-04T17:13:43.289Z,4.78
2018-09-04T17:16:11.322Z,4.80
2018-09-04T17:18:39.487Z,5.10
2018-09-04T17:21:07.436Z,5.10
2018-09-04T17:23:35.457Z,4.97
2018-09-04T17:26:03.543Z,5.17
2018-09-04T17:28:31.501Z,5.30
2018-09-04T17:30:59.509Z,5.37
2018-09-04T17:33:27.507Z,5.40
2018-09-04T17:35:55.526Z,5.78
2018-09-04T17:38:23.602Z,5.40
2018-09-04T17:40:51.540Z,5.35
2018-09-04T17:43:19.554Z,5.55
2018-09-04T17:45:47.612Z,5.03
2018-09-04T17:48:15.588Z,5.60
2018-09-04T17:50:43.617Z,5.53
2018-09-04T17:53:11.645Z,5.50
2018-09-04T17:55:39.655Z,5.70
2018-09-04T17:58:07.649Z,6.75
2018-09-04T18:00:35.679Z,5.80
2018-09-04T18:03:03.665Z,5.55
2018-09-04T18:05:31.681Z,5.80
2018-09-04T18:07:59.701Z,5.50
2018-09-04T18:10:27.720Z,5.87
2018-09-04T18:12:55.754Z,5.40
2018-09-04T18:15:23.789Z,5.70
2018-09-04T18:17:51.820Z,7.03
2018-09-04T18:20:19.841Z,5.50
2018-09-04T18:22:47.868Z,6.05
2018-09-04T18:25:15.912Z,5.80
2018-09-04T18:27:44.411Z,5.60
2018-09-04T18:30:12.463Z,6.10
2018-09-04T18:32:40.496Z,6.20
2018-09-04T18:35:08.540Z,5.60
2018-09-04T18:37:36.559Z,5.90
2018-09-04T18:40:04.581Z,5.92
2018-09-04T18:42:32.632Z,6.45
2018-09-04T18:45:00.656Z,5.80
2018-09-04T18:47:28.696Z,5.80
2018-09-04T18:49:56.727Z,6.30
2018-09-04T18:52:24.756Z,6.17
2018-09-04T18:54:52.775Z,6.10
2018-09-04T18:57:20.830Z,5.72
2018-09-04T19:00:25.733Z,6.10
2018-09-04T19:02:53.784Z,5.55
2018-09-04T19:05:21.826Z,5.75
2018-09-04T19:07:49.852Z,6.20
2018-09-04T19:10:17.900Z,6.40
2018-09-04T19:12:45.940Z,6.60
2018-09-04T19:15:13.960Z,5.85
2018-09-04T19:17:41.989Z,6.20
2018-09-04T19:20:10.039Z,6.35
2018-09-04T19:22:38.233Z,6.35
2018-09-04T19:25:06.264Z,6.45
2018-09-04T19:27:34.300Z,6.20
2018-09-04T19:30:02.333Z,6.10
2018-09-04T19:32:30.599Z,6.20
2018-09-04T19:34:58.868Z,6.35
2018-09-04T19:37:26.923Z,6.00
2018-09-04T19:39:54.942Z,6.37
2018-09-04T19:42:22.965Z,6.50
2018-09-04T19:44:50.981Z,6.40
2018-09-04T19:47:19.008Z,6.70
2018-09-04T19:49:47.390Z,6.83
2018-09-04T19:52:15.713Z,6.43
2018-09-04T19:54:43.760Z,6.60
2018-09-04T19:57:11.809Z,6.37
2018-09-04T19:59:39.861Z,6.85
2018-09-04T20:02:07.896Z,6.87
2018-09-04T20:04:36.135Z,6.92
2018-09-04T20:07:04.185Z,7.17
2018-09-04T20:09:32.262Z,6.55
2018-09-04T20:12:00.316Z,7.10
2018-09-04T20:14:28.357Z,7.10
2018-09-04T20:16:56.385Z,7.00
2018-09-04T20:19:24.419Z,7.35
2018-09-04T20:21:52.456Z,6.90
2018-09-04T20:24:20.504Z,6.95
2018-09-04T20:26:48.574Z,7.53
2018-09-04T20:29:16.578Z,7.63
2018-09-04T20:31:44.589Z,7.10
2018-09-04T20:34:12.604Z,7.75
2018-09-04T20:36:40.649Z,7.60
2018-09-04T20:39:08.689Z,7.80
2018-09-04T20:41:37.731Z,7.37
2018-09-04T20:44:06.035Z,7.57
2018-09-04T20:46:34.764Z,7.35
2018-09-04T20:49:02.785Z,8.05
2018-09-04T20:51:30.808Z,7.85
2018-09-04T20:53:58.864Z,8.25
2018-09-04T20:56:26.880Z,7.58
2018-09-04T20:59:07.020Z,7.67
2018-09-04T21:01:46.581Z,7.25
2018-09-04T21:04:26.076Z,7.27
2018-09-04T21:06:54.480Z,7.70
2018-09-04T21:09:33.272Z,7.80
2018-09-04T21:12:01.652Z,7.22
2018-09-04T21:14:29.728Z,7.33
2018-09-04T21:16:57.967Z,7.80
2018-09-04T21:19:25.960Z,8.30
2018-09-04T21:21:53.976Z,7.10
2018-09-04T21:24:22.024Z,8.03
2018-09-04T21:26:50.067Z,7.67
2018-09-04T21:29:18.135Z,7.97
2018-09-04T21:31:46.112Z,8.13
2018-09-04T21:34:14.116Z,7.87
2018-09-04T21:36:42.128Z,8.15
2018-09-04T21:39:10.758Z,8.68
2018-09-04T21:41:38.935Z,8.38
2018-09-04T21:44:07.007Z,8.78
2018-09-04T21:46:35.025Z,9.03
2018-09-04T21:49:03.112Z,9.20
2018-09-04T21:51:31.319Z,8.75
2018-09-04T21:53:59.332Z,8.90
2018-09-04T21:56:27.347Z,9.20
2018-09-04T21:58:55.637Z,8.10
2018-09-04T22:01:23.676Z,9.18
2018-09-04T22:03:51.700Z,8.90
2018-09-04T22:06:19.759Z,9.03
2018-09-04T22:08:47.771Z,9.45
2018-09-04T22:11:15.786Z,9.43
2018-09-04T22:13:43.864Z,9.80
2018-09-04T22:16:11.888Z,9.20
2018-09-04T22:18:39.895Z,8.90
2018-09-04T22:21:08.303Z,8.95
2018-09-04T22:23:36.844Z,9.90
2018-09-04T22:26:05.177Z,9.45
2018-09-04T22:28:33.209Z,9.45
2018-09-04T22:31:01.236Z,9.90
2018-09-04T22:33:29.264Z,10.40
2018-09-04T22:35:57.336Z,10.55
2018-09-04T22:38:25.395Z,10.93
2018-09-04T22:40:53.423Z,9.40
2018-09-04T22:43:21.470Z,10.03
2018-09-04T22:45:49.504Z,10.20
2018-09-04T22:48:17.555Z,10.58
2018-09-04T22:50:51.041Z,11.00
2018-09-04T22:53:19.438Z,9.90
2018-09-04T22:55:47.768Z,10.30
2018-09-04T22:58:15.796Z,10.80
2018-09-04T23:00:43.853Z,10.85
2018-09-04T23:03:11.892Z,11.50
2018-09-04T23:05:39.936Z,10.82
2018-09-04T23:08:07.981Z,11.38
2018-09-04T23:10:36.032Z,11.10
2018-09-04T23:13:04.811Z,12.60
2018-09-04T23:15:37.289Z,11.90
2018-09-04T23:18:05.330Z,12.13
2018-09-04T23:20:33.400Z,11.60
2018-09-04T23:23:01.440Z,11.73
2018-09-04T23:25:29.468Z,12.27
2018-09-04T23:27:57.480Z,12.20
2018-09-04T23:30:25.521Z,12.45
2018-09-04T23:32:53.558Z,12.35
2018-09-04T23:35:21.572Z,12.80
2018-09-04T23:37:49.585Z,12.55
2018-09-04T23:40:17.613Z,13.48
2018-09-04T23:42:45.649Z,13.10
2018-09-04T23:45:14.240Z,13.55
2018-09-04T23:47:42.924Z,13.05
2018-09-04T23:50:10.969Z,14.40
2018-09-04T23:52:39.012Z,13.03
2018-09-04T23:55:07.055Z,13.22
2018-09-04T23:57:35.073Z,14.07
